sensor_id;sensor_type;location;lat;lon;timestamp;pressure;altitude;pressure_sealevel;temperature;humidity
31483;BME280;18103;52.246;8.052;2023-02-19T00:01:10;100363.47;;;9.35;92.91
31483;BME280;18103;52.246;8.052;2023-02-19T00:03:36;100362.00;;;9.31;93.24
31483;BME280;18103;52.246;8.052;2023-02-19T00:06:07;100356.13;;;9.28;93.33
31483;BME280;18103;52.246;8.052;2023-02-19T00:08:34;100361.41;;;9.28;93.31
31483;BME280;18103;52.246;8.052;2023-02-19T00:11:08;100368.44;;;9.27;93.16
31483;BME280;18103;52.246;8.052;2023-02-19T00:13:40;100368.34;;;9.29;93.19
31483;BME280;18103;52.246;8.052;2023-02-19T00:16:13;100373.31;;;9.20;93.37
31483;BME280;18103;52.246;8.052;2023-02-19T00:18:39;100369.50;;;9.24;93.24
31483;BME280;18103;52.246;8.052;2023-02-19T00:21:05;100370.97;;;9.29;93.02
31483;BME280;18103;52.246;8.052;2023-02-19T00:23:31;100360.88;;;9.22;93.61
31483;BME280;18103;52.246;8.052;2023-02-19T00:26:10;100357.19;;;9.25;93.58
31483;BME280;18103;52.246;8.052;2023-02-19T00:28:36;100357.50;;;9.20;93.85
31483;BME280;18103;52.246;8.052;2023-02-19T00:31:07;100353.94;;;9.21;93.81
31483;BME280;18103;52.246;8.052;2023-02-19T00:33:33;100352.03;;;9.23;93.84
31483;BME280;18103;52.246;8.052;2023-02-19T00:36:03;100351.41;;;9.20;93.80
31483;BME280;18103;52.246;8.052;2023-02-19T00:38:30;100350.47;;;9.21;93.35
31483;BME280;18103;52.246;8.052;2023-02-19T00:40:57;100358.47;;;9.19;93.77
31483;BME280;18103;52.246;8.052;2023-02-19T00:43:23;100353.22;;;9.19;93.79
31483;BME280;18103;52.246;8.052;2023-02-19T00:45:48;100355.97;;;9.18;93.74
31483;BME280;18103;52.246;8.052;2023-02-19T00:48:13;100347.22;;;9.17;93.73
31483;BME280;18103;52.246;8.052;2023-02-19T00:50:39;100340.06;;;9.19;93.75
31483;BME280;18103;52.246;8.052;2023-02-19T00:53:04;100346.38;;;9.17;93.64
31483;BME280;18103;52.246;8.052;2023-02-19T00:55:30;100332.47;;;9.15;93.87
31483;BME280;18103;52.246;8.052;2023-02-19T00:57:55;100338.38;;;9.18;93.77
31483;BME280;18103;52.246;8.052;2023-02-19T01:00:20;100338.25;;;9.20;93.63
31483;BME280;18103;52.246;8.052;2023-02-19T01:02:46;100341.00;;;9.18;93.78
31483;BME280;18103;52.246;8.052;2023-02-19T01:05:11;100342.16;;;9.14;93.75
31483;BME280;18103;52.246;8.052;2023-02-19T01:07:37;100340.38;;;9.15;93.55
31483;BME280;18103;52.246;8.052;2023-02-19T01:10:03;100347.84;;;9.21;93.61
31483;BME280;18103;52.246;8.052;2023-02-19T01:12:29;100350.69;;;9.18;93.85
31483;BME280;18103;52.246;8.052;2023-02-19T01:14:55;100351.66;;;9.17;93.89
31483;BME280;18103;52.246;8.052;2023-02-19T01:17:21;100347.09;;;9.19;93.74
31483;BME280;18103;52.246;8.052;2023-02-19T01:19:46;100344.34;;;9.20;93.93
31483;BME280;18103;52.246;8.052;2023-02-19T01:22:11;100351.69;;;9.28;93.79
31483;BME280;18103;52.246;8.052;2023-02-19T01:24:37;100349.84;;;9.17;94.38
31483;BME280;18103;52.246;8.052;2023-02-19T01:27:02;100341.63;;;9.22;94.52
31483;BME280;18103;52.246;8.052;2023-02-19T01:29:28;100340.75;;;9.21;94.65
31483;BME280;18103;52.246;8.052;2023-02-19T01:31:53;100344.97;;;9.24;94.41
31483;BME280;18103;52.246;8.052;2023-02-19T01:34:18;100334.66;;;9.21;94.67
31483;BME280;18103;52.246;8.052;2023-02-19T01:36:44;100334.66;;;9.21;94.59
31483;BME280;18103;52.246;8.052;2023-02-19T01:39:09;100336.44;;;9.20;94.68
31483;BME280;18103;52.246;8.052;2023-02-19T01:41:38;100338.75;;;9.25;94.22
31483;BME280;18103;52.246;8.052;2023-02-19T01:46:38;100329.41;;;9.21;94.48
31483;BME280;18103;52.246;8.052;2023-02-19T01:49:16;100322.44;;;9.20;94.11
31483;BME280;18103;52.246;8.052;2023-02-19T01:52:01;100322.31;;;9.21;94.39
31483;BME280;18103;52.246;8.052;2023-02-19T01:54:31;100327.38;;;9.24;94.24
31483;BME280;18103;52.246;8.052;2023-02-19T01:57:01;100330.13;;;9.23;93.58
31483;BME280;18103;52.246;8.052;2023-02-19T01:59:28;100335.63;;;9.20;93.87
31483;BME280;18103;52.246;8.052;2023-02-19T02:01:53;100327.47;;;9.23;94.00
31483;BME280;18103;52.246;8.052;2023-02-19T02:04:19;100332.88;;;9.21;94.20
31483;BME280;18103;52.246;8.052;2023-02-19T02:06:51;100336.25;;;9.23;93.87
31483;BME280;18103;52.246;8.052;2023-02-19T02:09:18;100331.09;;;9.22;93.84
31483;BME280;18103;52.246;8.052;2023-02-19T02:12:03;100332.75;;;9.23;94.01
31483;BME280;18103;52.246;8.052;2023-02-19T02:14:30;100340.66;;;9.23;93.85
31483;BME280;18103;52.246;8.052;2023-02-19T02:22:18;100340.94;;;9.31;93.49
31483;BME280;18103;52.246;8.052;2023-02-19T02:27:52;100332.44;;;9.28;93.46
31483;BME280;18103;52.246;8.052;2023-02-19T02:38:14;100339.47;;;9.27;93.16
31483;BME280;18103;52.246;8.052;2023-02-19T02:40:43;100326.41;;;9.25;93.19
31483;BME280;18103;52.246;8.052;2023-02-19T02:43:10;100319.69;;;9.21;92.88
31483;BME280;18103;52.246;8.052;2023-02-19T02:45:36;100315.78;;;9.27;92.80
31483;BME280;18103;52.246;8.052;2023-02-19T02:53:53;100318.16;;;9.30;92.59
31483;BME280;18103;52.246;8.052;2023-02-19T02:56:40;100327.06;;;9.29;92.59
31483;BME280;18103;52.246;8.052;2023-02-19T02:59:09;100323.56;;;9.29;92.77
31483;BME280;18103;52.246;8.052;2023-02-19T03:01:48;100318.09;;;9.32;92.67
31483;BME280;18103;52.246;8.052;2023-02-19T03:08:05;100326.31;;;9.27;92.67
31483;BME280;18103;52.246;8.052;2023-02-19T03:10:43;100329.06;;;9.25;92.70
31483;BME280;18103;52.246;8.052;2023-02-19T03:13:14;100325.81;;;9.22;92.92
31483;BME280;18103;52.246;8.052;2023-02-19T03:16:22;100336.13;;;9.25;92.60
31483;BME280;18103;52.246;8.052;2023-02-19T03:19:09;100342.47;;;9.22;92.82
31483;BME280;18103;52.246;8.052;2023-02-19T03:21:53;100346.16;;;9.20;93.18
31483;BME280;18103;52.246;8.052;2023-02-19T03:24:25;100346.91;;;9.22;92.78
31483;BME280;18103;52.246;8.052;2023-02-19T03:27:11;100351.19;;;9.23;92.77
31483;BME280;18103;52.246;8.052;2023-02-19T03:29:39;100349.00;;;9.17;92.64
31483;BME280;18103;52.246;8.052;2023-02-19T03:32:13;100356.69;;;9.20;92.32
31483;BME280;18103;52.246;8.052;2023-02-19T03:34:45;100359.53;;;9.17;92.08
31483;BME280;18103;52.246;8.052;2023-02-19T03:37:17;100356.34;;;9.24;92.16
31483;BME280;18103;52.246;8.052;2023-02-19T03:39:49;100361.22;;;9.18;91.65
31483;BME280;18103;52.246;8.052;2023-02-19T03:42:23;100357.84;;;9.16;91.77
31483;BME280;18103;52.246;8.052;2023-02-19T03:45:14;100363.63;;;9.21;91.18
31483;BME280;18103;52.246;8.052;2023-02-19T03:47:49;100357.75;;;9.17;91.75
31483;BME280;18103;52.246;8.052;2023-02-19T03:50:26;100358.91;;;9.13;91.34
31483;BME280;18103;52.246;8.052;2023-02-19T04:06:01;100386.31;;;9.11;91.82
31483;BME280;18103;52.246;8.052;2023-02-19T04:08:28;100390.63;;;9.12;91.76
31483;BME280;18103;52.246;8.052;2023-02-19T04:10:57;100384.94;;;9.05;91.52
31483;BME280;18103;52.246;8.052;2023-02-19T04:13:35;100398.00;;;9.06;91.81
31483;BME280;18103;52.246;8.052;2023-02-19T04:16:06;100392.53;;;9.10;91.37
31483;BME280;18103;52.246;8.052;2023-02-19T04:18:37;100396.63;;;9.14;91.28
31483;BME280;18103;52.246;8.052;2023-02-19T04:21:05;100406.00;;;9.05;91.47
31483;BME280;18103;52.246;8.052;2023-02-19T04:23:36;100421.09;;;9.03;91.11
31483;BME280;18103;52.246;8.052;2023-02-19T04:26:03;100411.09;;;9.08;90.70
31483;BME280;18103;52.246;8.052;2023-02-19T04:28:30;100413.31;;;9.01;90.63
31483;BME280;18103;52.246;8.052;2023-02-19T04:30:55;100419.50;;;9.00;90.89
31483;BME280;18103;52.246;8.052;2023-02-19T04:33:20;100418.47;;;9.03;90.75
31483;BME280;18103;52.246;8.052;2023-02-19T04:35:46;100420.75;;;9.07;90.86
31483;BME280;18103;52.246;8.052;2023-02-19T04:38:11;100421.22;;;9.01;90.52
31483;BME280;18103;52.246;8.052;2023-02-19T04:40:38;100432.03;;;8.97;90.82
31483;BME280;18103;52.246;8.052;2023-02-19T04:43:04;100431.00;;;8.99;91.00
31483;BME280;18103;52.246;8.052;2023-02-19T04:45:29;100429.63;;;8.94;91.13
31483;BME280;18103;52.246;8.052;2023-02-19T04:47:56;100442.69;;;8.95;91.17
31483;BME280;18103;52.246;8.052;2023-02-19T04:50:22;100438.38;;;8.94;91.13
31483;BME280;18103;52.246;8.052;2023-02-19T04:52:47;100458.47;;;8.95;91.07
31483;BME280;18103;52.246;8.052;2023-02-19T04:55:13;100457.00;;;8.91;91.15
31483;BME280;18103;52.246;8.052;2023-02-19T04:57:38;100462.59;;;8.86;91.37
31483;BME280;18103;52.246;8.052;2023-02-19T05:00:04;100474.28;;;8.95;91.22
31483;BME280;18103;52.246;8.052;2023-02-19T05:02:29;100466.28;;;8.84;91.33
31483;BME280;18103;52.246;8.052;2023-02-19T05:04:55;100473.25;;;8.85;91.08
31483;BME280;18103;52.246;8.052;2023-02-19T05:07:20;100481.03;;;8.86;91.04
31483;BME280;18103;52.246;8.052;2023-02-19T05:09:45;100483.13;;;8.81;90.66
31483;BME280;18103;52.246;8.052;2023-02-19T05:12:11;100490.19;;;8.81;91.04
31483;BME280;18103;52.246;8.052;2023-02-19T05:14:36;100485.69;;;8.83;90.78
31483;BME280;18103;52.246;8.052;2023-02-19T05:17:01;100492.59;;;8.84;90.63
31483;BME280;18103;52.246;8.052;2023-02-19T05:19:27;100489.53;;;8.77;90.42
31483;BME280;18103;52.246;8.052;2023-02-19T05:21:52;100490.41;;;8.78;90.64
31483;BME280;18103;52.246;8.052;2023-02-19T05:24:18;100484.59;;;8.72;90.37
31483;BME280;18103;52.246;8.052;2023-02-19T05:26:43;100497.97;;;8.69;90.51
31483;BME280;18103;52.246;8.052;2023-02-19T05:29:09;100491.78;;;8.70;90.48
31483;BME280;18103;52.246;8.052;2023-02-19T05:31:34;100499.66;;;8.70;90.45
31483;BME280;18103;52.246;8.052;2023-02-19T05:33:59;100505.03;;;8.69;90.54
31483;BME280;18103;52.246;8.052;2023-02-19T05:36:25;100513.88;;;8.68;90.51
31483;BME280;18103;52.246;8.052;2023-02-19T05:38:53;100515.47;;;8.70;90.50
31483;BME280;18103;52.246;8.052;2023-02-19T05:41:27;100512.84;;;8.70;90.64
31483;BME280;18103;52.246;8.052;2023-02-19T05:43:53;100514.09;;;8.65;90.48
31483;BME280;18103;52.246;8.052;2023-02-19T05:46:21;100522.91;;;8.64;90.38
31483;BME280;18103;52.246;8.052;2023-02-19T05:48:48;100518.00;;;8.72;90.36
31483;BME280;18103;52.246;8.052;2023-02-19T05:51:16;100525.22;;;8.68;90.49
31483;BME280;18103;52.246;8.052;2023-02-19T05:53:43;100533.34;;;8.65;90.22
31483;BME280;18103;52.246;8.052;2023-02-19T05:56:23;100553.03;;;8.72;90.13
31483;BME280;18103;52.246;8.052;2023-02-19T05:58:52;100571.88;;;8.79;89.96
31483;BME280;18103;52.246;8.052;2023-02-19T06:01:19;100563.25;;;8.77;89.35
31483;BME280;18103;52.246;8.052;2023-02-19T06:03:45;100573.13;;;8.61;89.31
31483;BME280;18103;52.246;8.052;2023-02-19T06:06:15;100580.59;;;8.54;88.84
31483;BME280;18103;52.246;8.052;2023-02-19T06:08:40;100583.00;;;8.57;89.00
31483;BME280;18103;52.246;8.052;2023-02-19T06:11:06;100596.16;;;8.57;88.07
31483;BME280;18103;52.246;8.052;2023-02-19T06:13:31;100591.50;;;8.48;87.64
31483;BME280;18103;52.246;8.052;2023-02-19T06:15:57;100596.59;;;8.36;88.24
31483;BME280;18103;52.246;8.052;2023-02-19T06:18:22;100613.44;;;8.34;88.65
31483;BME280;18103;52.246;8.052;2023-02-19T06:20:47;100614.66;;;8.28;88.52
31483;BME280;18103;52.246;8.052;2023-02-19T06:23:13;100617.72;;;8.35;88.24
31483;BME280;18103;52.246;8.052;2023-02-19T06:25:38;100631.75;;;8.35;88.36
31483;BME280;18103;52.246;8.052;2023-02-19T06:28:04;100638.13;;;8.31;88.07
31483;BME280;18103;52.246;8.052;2023-02-19T06:30:29;100639.63;;;8.35;87.64
31483;BME280;18103;52.246;8.052;2023-02-19T06:32:55;100647.16;;;8.27;87.71
31483;BME280;18103;52.246;8.052;2023-02-19T06:35:20;100648.88;;;8.28;87.50
31483;BME280;18103;52.246;8.052;2023-02-19T06:37:47;100656.50;;;8.18;87.58
31483;BME280;18103;52.246;8.052;2023-02-19T06:40:12;100670.94;;;8.26;87.68
31483;BME280;18103;52.246;8.052;2023-02-19T06:42:38;100675.97;;;7.87;88.97
31483;BME280;18103;52.246;8.052;2023-02-19T06:45:03;100682.63;;;7.93;88.34
31483;BME280;18103;52.246;8.052;2023-02-19T06:47:30;100696.69;;;7.92;88.37
31483;BME280;18103;52.246;8.052;2023-02-19T06:49:56;100698.75;;;8.01;88.20
31483;BME280;18103;52.246;8.052;2023-02-19T06:52:21;100704.97;;;7.85;87.87
31483;BME280;18103;52.246;8.052;2023-02-19T06:54:47;100715.28;;;7.88;88.18
31483;BME280;18103;52.246;8.052;2023-02-19T06:57:12;100719.78;;;7.72;87.91
31483;BME280;18103;52.246;8.052;2023-02-19T06:59:37;100739.97;;;7.71;88.70
31483;BME280;18103;52.246;8.052;2023-02-19T07:02:03;100741.56;;;7.74;87.77
31483;BME280;18103;52.246;8.052;2023-02-19T07:04:28;100745.41;;;7.68;87.99
31483;BME280;18103;52.246;8.052;2023-02-19T07:06:53;100746.34;;;7.67;87.96
31483;BME280;18103;52.246;8.052;2023-02-19T07:09:19;100764.63;;;7.54;88.89
31483;BME280;18103;52.246;8.052;2023-02-19T07:11:44;100766.69;;;7.64;87.73
31483;BME280;18103;52.246;8.052;2023-02-19T07:14:14;100770.41;;;7.45;87.81
31483;BME280;18103;52.246;8.052;2023-02-19T07:16:40;100773.50;;;7.38;88.64
31483;BME280;18103;52.246;8.052;2023-02-19T07:19:05;100779.59;;;7.52;87.83
31483;BME280;18103;52.246;8.052;2023-02-19T07:21:30;100784.63;;;7.41;88.22
31483;BME280;18103;52.246;8.052;2023-02-19T07:23:56;100786.41;;;7.26;88.91
31483;BME280;18103;52.246;8.052;2023-02-19T07:26:23;100789.03;;;7.26;89.05
31483;BME280;18103;52.246;8.052;2023-02-19T07:28:49;100793.31;;;7.27;88.64
31483;BME280;18103;52.246;8.052;2023-02-19T07:31:16;100804.31;;;7.34;88.93
31483;BME280;18103;52.246;8.052;2023-02-19T07:33:42;100800.09;;;7.31;88.89
31483;BME280;18103;52.246;8.052;2023-02-19T07:36:09;100815.75;;;7.33;89.12
31483;BME280;18103;52.246;8.052;2023-02-19T07:38:34;100824.31;;;7.36;88.29
31483;BME280;18103;52.246;8.052;2023-02-19T07:41:01;100829.97;;;7.29;87.93
31483;BME280;18103;52.246;8.052;2023-02-19T07:43:30;100822.38;;;7.24;88.28
31483;BME280;18103;52.246;8.052;2023-02-19T07:45:56;100823.06;;;7.28;87.81
31483;BME280;18103;52.246;8.052;2023-02-19T07:48:21;100834.34;;;7.14;88.17
31483;BME280;18103;52.246;8.052;2023-02-19T07:51:06;100835.09;;;7.16;88.17
31483;BME280;18103;52.246;8.052;2023-02-19T07:53:33;100840.94;;;7.21;87.85
31483;BME280;18103;52.246;8.052;2023-02-19T07:56:00;100843.38;;;7.24;88.30
31483;BME280;18103;52.246;8.052;2023-02-19T07:58:26;100845.44;;;7.03;87.86
31483;BME280;18103;52.246;8.052;2023-02-19T08:00:52;100843.16;;;6.97;88.41
31483;BME280;18103;52.246;8.052;2023-02-19T08:03:17;100854.75;;;7.09;88.71
31483;BME280;18103;52.246;8.052;2023-02-19T08:05:43;100860.78;;;7.11;88.59
31483;BME280;18103;52.246;8.052;2023-02-19T08:08:11;100865.66;;;7.17;88.21
31483;BME280;18103;52.246;8.052;2023-02-19T08:10:37;100868.47;;;7.14;88.50
31483;BME280;18103;52.246;8.052;2023-02-19T08:13:21;100880.22;;;7.23;87.87
31483;BME280;18103;52.246;8.052;2023-02-19T08:15:55;100881.78;;;7.11;88.09
31483;BME280;18103;52.246;8.052;2023-02-19T08:18:23;100888.13;;;7.07;88.99
31483;BME280;18103;52.246;8.052;2023-02-19T08:20:49;100887.69;;;6.98;88.68
31483;BME280;18103;52.246;8.052;2023-02-19T08:23:15;100890.22;;;7.00;88.60
31483;BME280;18103;52.246;8.052;2023-02-19T08:25:41;100887.53;;;7.01;88.18
31483;BME280;18103;52.246;8.052;2023-02-19T08:28:08;100901.56;;;7.00;88.44
31483;BME280;18103;52.246;8.052;2023-02-19T08:30:35;100898.84;;;6.86;88.04
31483;BME280;18103;52.246;8.052;2023-02-19T08:33:03;100904.38;;;6.97;87.79
31483;BME280;18103;52.246;8.052;2023-02-19T08:35:28;100913.94;;;6.98;87.60
31483;BME280;18103;52.246;8.052;2023-02-19T08:37:55;100915.06;;;6.77;88.39
31483;BME280;18103;52.246;8.052;2023-02-19T08:40:21;100916.44;;;6.68;88.84
31483;BME280;18103;52.246;8.052;2023-02-19T08:42:46;100914.69;;;6.84;88.15
31483;BME280;18103;52.246;8.052;2023-02-19T08:45:12;100910.16;;;6.71;88.90
31483;BME280;18103;52.246;8.052;2023-02-19T08:47:38;100906.75;;;6.68;88.67
31483;BME280;18103;52.246;8.052;2023-02-19T08:50:05;100913.72;;;6.70;88.36
31483;BME280;18103;52.246;8.052;2023-02-19T08:52:31;100915.00;;;6.78;87.89
31483;BME280;18103;52.246;8.052;2023-02-19T08:54:56;100917.34;;;6.67;88.08
31483;BME280;18103;52.246;8.052;2023-02-19T08:57:22;100927.63;;;6.72;87.85
31483;BME280;18103;52.246;8.052;2023-02-19T08:59:47;100932.25;;;6.66;88.02
31483;BME280;18103;52.246;8.052;2023-02-19T09:02:13;100942.50;;;6.71;87.84
31483;BME280;18103;52.246;8.052;2023-02-19T09:04:38;100946.03;;;6.70;88.16
31483;BME280;18103;52.246;8.052;2023-02-19T09:07:04;100945.75;;;6.59;88.02
31483;BME280;18103;52.246;8.052;2023-02-19T09:09:38;100962.09;;;6.64;87.88
31483;BME280;18103;52.246;8.052;2023-02-19T09:12:09;100968.19;;;6.64;87.43
31483;BME280;18103;52.246;8.052;2023-02-19T09:14:35;100978.94;;;6.60;88.11
31483;BME280;18103;52.246;8.052;2023-02-19T09:17:02;100974.38;;;6.46;87.57
31483;BME280;18103;52.246;8.052;2023-02-19T09:19:28;100978.94;;;6.60;87.36
31483;BME280;18103;52.246;8.052;2023-02-19T10:56:29;101138.53;;;8.03;82.66
31483;BME280;18103;52.246;8.052;2023-02-19T10:59:33;101134.81;;;8.07;84.21
31483;BME280;18103;52.246;8.052;2023-02-19T11:02:16;101137.94;;;8.14;82.54
31483;BME280;18103;52.246;8.052;2023-02-19T11:07:25;101157.13;;;8.16;81.88
31483;BME280;18103;52.246;8.052;2023-02-19T11:09:51;101162.31;;;8.17;83.52
31483;BME280;18103;52.246;8.052;2023-02-19T11:12:38;101171.88;;;8.34;83.22
31483;BME280;18103;52.246;8.052;2023-02-19T11:17:57;101172.16;;;8.30;81.63
31483;BME280;18103;52.246;8.052;2023-02-19T11:20:23;101170.78;;;8.22;83.01
31483;BME280;18103;52.246;8.052;2023-02-19T11:22:49;101157.03;;;8.17;80.71
31483;BME280;18103;52.246;8.052;2023-02-19T11:28:04;101165.34;;;8.10;82.02
31483;BME280;18103;52.246;8.052;2023-02-19T11:30:32;101148.28;;;8.01;81.35
31483;BME280;18103;52.246;8.052;2023-02-19T11:35:44;101148.13;;;8.04;80.28
31483;BME280;18103;52.246;8.052;2023-02-19T11:38:12;101147.38;;;8.02;79.85
31483;BME280;18103;52.246;8.052;2023-02-19T11:46:18;101126.91;;;8.55;78.47
31483;BME280;18103;52.246;8.052;2023-02-19T11:48:50;101130.38;;;8.55;77.18
31483;BME280;18103;52.246;8.052;2023-02-19T11:51:31;101132.13;;;9.01;79.18
31483;BME280;18103;52.246;8.052;2023-02-19T11:54:19;101132.25;;;9.14;78.25
31483;BME280;18103;52.246;8.052;2023-02-19T11:57:08;101131.31;;;9.73;79.11
31483;BME280;18103;52.246;8.052;2023-02-19T11:59:47;101131.56;;;10.12;77.16
31483;BME280;18103;52.246;8.052;2023-02-19T12:13:12;101137.03;;;9.94;72.49
31483;BME280;18103;52.246;8.052;2023-02-19T12:19:08;101161.84;;;11.01;75.38
31483;BME280;18103;52.246;8.052;2023-02-19T12:21:54;101166.97;;;10.76;74.10
31483;BME280;18103;52.246;8.052;2023-02-19T12:24:46;101166.59;;;10.55;74.08
31483;BME280;18103;52.246;8.052;2023-02-19T12:27:43;101175.59;;;10.24;72.86
31483;BME280;18103;52.246;8.052;2023-02-19T12:35:43;101183.75;;;9.92;72.83
31483;BME280;18103;52.246;8.052;2023-02-19T12:38:24;101182.53;;;9.69;73.51
31483;BME280;18103;52.246;8.052;2023-02-19T12:41:17;101182.25;;;9.45;73.64
31483;BME280;18103;52.246;8.052;2023-02-19T12:43:57;101185.06;;;9.70;73.27
31483;BME280;18103;52.246;8.052;2023-02-19T12:48:59;101199.97;;;9.71;74.11
31483;BME280;18103;52.246;8.052;2023-02-19T12:51:30;101203.72;;;9.67;74.08
31483;BME280;18103;52.246;8.052;2023-02-19T12:54:01;101205.97;;;9.59;74.91
31483;BME280;18103;52.246;8.052;2023-02-19T12:56:51;101200.50;;;9.48;73.82
31483;BME280;18103;52.246;8.052;2023-02-19T12:59:32;101192.78;;;9.45;75.75
31483;BME280;18103;52.246;8.052;2023-02-19T13:02:17;101188.25;;;9.61;77.15
31483;BME280;18103;52.246;8.052;2023-02-19T13:07:32;101178.66;;;9.89;75.19
31483;BME280;18103;52.246;8.052;2023-02-19T13:10:28;101178.31;;;10.22;73.86
31483;BME280;18103;52.246;8.052;2023-02-19T13:12:58;101197.13;;;10.59;73.50
31483;BME280;18103;52.246;8.052;2023-02-19T13:15:37;101185.91;;;10.56;72.83
31483;BME280;18103;52.246;8.052;2023-02-19T13:18:18;101185.78;;;10.30;72.15
31483;BME280;18103;52.246;8.052;2023-02-19T13:20:46;101199.28;;;9.97;70.63
31483;BME280;18103;52.246;8.052;2023-02-19T13:23:27;101185.22;;;10.25;73.26
31483;BME280;18103;52.246;8.052;2023-02-19T13:29:00;101194.09;;;10.09;71.50
31483;BME280;18103;52.246;8.052;2023-02-19T13:37:06;101185.16;;;9.98;72.79
31483;BME280;18103;52.246;8.052;2023-02-19T13:39:32;101189.69;;;9.96;71.08
31483;BME280;18103;52.246;8.052;2023-02-19T13:41:58;101186.66;;;9.87;71.81
31483;BME280;18103;52.246;8.052;2023-02-19T13:44:29;101183.22;;;9.72;70.03
31483;BME280;18103;52.246;8.052;2023-02-19T13:46:55;101193.16;;;9.82;72.28
31483;BME280;18103;52.246;8.052;2023-02-19T13:51:53;101197.50;;;9.97;72.36
31483;BME280;18103;52.246;8.052;2023-02-19T13:54:27;101195.16;;;9.92;72.36
31483;BME280;18103;52.246;8.052;2023-02-19T13:59:47;101206.16;;;9.85;72.73
31483;BME280;18103;52.246;8.052;2023-02-19T14:02:23;101213.44;;;9.81;72.48
31483;BME280;18103;52.246;8.052;2023-02-19T14:04:55;101218.78;;;9.65;72.60
31483;BME280;18103;52.246;8.052;2023-02-19T14:07:48;101224.66;;;9.40;72.42
31483;BME280;18103;52.246;8.052;2023-02-19T14:10:53;101227.34;;;9.54;71.80
31483;BME280;18103;52.246;8.052;2023-02-19T14:18:52;101244.72;;;9.42;72.45
31483;BME280;18103;52.246;8.052;2023-02-19T14:21:35;101250.38;;;9.36;72.06
31483;BME280;18103;52.246;8.052;2023-02-19T14:24:01;101251.50;;;9.16;72.23
31483;BME280;18103;52.246;8.052;2023-02-19T14:26:30;101245.78;;;9.10;71.62
31483;BME280;18103;52.246;8.052;2023-02-19T14:28:57;101250.94;;;9.11;72.89
31483;BME280;18103;52.246;8.052;2023-02-19T14:31:30;101255.09;;;9.15;72.90
31483;BME280;18103;52.246;8.052;2023-02-19T14:34:02;101248.19;;;8.98;74.02
31483;BME280;18103;52.246;8.052;2023-02-19T14:36:47;101252.97;;;9.22;72.83
31483;BME280;18103;52.246;8.052;2023-02-19T14:39:23;101245.13;;;9.20;73.72
31483;BME280;18103;52.246;8.052;2023-02-19T14:42:03;101256.31;;;8.94;73.47
31483;BME280;18103;52.246;8.052;2023-02-19T14:44:51;101234.41;;;8.93;73.68
31483;BME280;18103;52.246;8.052;2023-02-19T14:47:23;101234.16;;;8.98;74.16
31483;BME280;18103;52.246;8.052;2023-02-19T14:49:59;101223.16;;;8.75;73.40
31483;BME280;18103;52.246;8.052;2023-02-19T14:55:14;101196.13;;;8.87;73.62
31483;BME280;18103;52.246;8.052;2023-02-19T14:57:44;101196.22;;;8.86;74.00
31483;BME280;18103;52.246;8.052;2023-02-19T15:00:23;101190.19;;;8.84;73.82
31483;BME280;18103;52.246;8.052;2023-02-19T15:02:51;101178.09;;;8.96;73.18
31483;BME280;18103;52.246;8.052;2023-02-19T15:05:22;101176.81;;;8.87;74.83
31483;BME280;18103;52.246;8.052;2023-02-19T15:07:48;101185.69;;;8.86;74.42
31483;BME280;18103;52.246;8.052;2023-02-19T15:10:15;101177.09;;;8.82;74.37
31483;BME280;18103;52.246;8.052;2023-02-19T15:15:16;101166.38;;;8.85;73.91
31483;BME280;18103;52.246;8.052;2023-02-19T15:17:43;101159.00;;;8.92;74.54
31483;BME280;18103;52.246;8.052;2023-02-19T15:20:11;101163.91;;;8.98;74.92
31483;BME280;18103;52.246;8.052;2023-02-19T15:22:40;101165.38;;;8.88;75.31
31483;BME280;18103;52.246;8.052;2023-02-19T15:25:06;101154.22;;;8.68;74.46
31483;BME280;18103;52.246;8.052;2023-02-19T15:27:31;101159.25;;;8.57;74.34
31483;BME280;18103;52.246;8.052;2023-02-19T15:29:58;101164.50;;;8.73;74.79
31483;BME280;18103;52.246;8.052;2023-02-19T15:32:26;101162.34;;;8.80;75.16
31483;BME280;18103;52.246;8.052;2023-02-19T15:34:59;101156.22;;;8.79;74.91
31483;BME280;18103;52.246;8.052;2023-02-19T15:37:30;101163.72;;;8.71;75.10
31483;BME280;18103;52.246;8.052;2023-02-19T15:39:58;101175.19;;;8.70;74.56
31483;BME280;18103;52.246;8.052;2023-02-19T15:44:55;101172.91;;;8.64;75.29
31483;BME280;18103;52.246;8.052;2023-02-19T15:47:36;101176.56;;;8.61;74.52
31483;BME280;18103;52.246;8.052;2023-02-19T16:01:02;101212.22;;;8.51;75.21
31483;BME280;18103;52.246;8.052;2023-02-19T16:03:29;101207.00;;;8.33;74.97
31483;BME280;18103;52.246;8.052;2023-02-19T16:06:02;101218.53;;;8.31;75.78
31483;BME280;18103;52.246;8.052;2023-02-19T16:08:33;101213.38;;;8.29;76.10
31483;BME280;18103;52.246;8.052;2023-02-19T16:11:01;101215.50;;;8.38;76.91
31483;BME280;18103;52.246;8.052;2023-02-19T16:13:29;101210.41;;;8.35;76.16
31483;BME280;18103;52.246;8.052;2023-02-19T16:16:05;101210.16;;;8.40;76.39
31483;BME280;18103;52.246;8.052;2023-02-19T16:18:31;101209.63;;;8.33;76.67
31483;BME280;18103;52.246;8.052;2023-02-19T16:20:57;101208.47;;;8.23;76.91
31483;BME280;18103;52.246;8.052;2023-02-19T16:23:23;101214.19;;;8.14;76.36
31483;BME280;18103;52.246;8.052;2023-02-19T16:25:56;101218.44;;;8.16;76.08
31483;BME280;18103;52.246;8.052;2023-02-19T16:28:24;101221.00;;;8.18;76.37
31483;BME280;18103;52.246;8.052;2023-02-19T16:31:01;101220.16;;;8.17;75.59
31483;BME280;18103;52.246;8.052;2023-02-19T16:33:48;101222.66;;;8.03;75.44
31483;BME280;18103;52.246;8.052;2023-02-19T16:41:23;101227.09;;;8.02;76.29
31483;BME280;18103;52.246;8.052;2023-02-19T16:43:49;101235.53;;;7.92;76.05
31483;BME280;18103;52.246;8.052;2023-02-19T16:46:14;101239.63;;;7.97;76.09
31483;BME280;18103;52.246;8.052;2023-02-19T16:48:39;101234.88;;;8.04;76.13
31483;BME280;18103;52.246;8.052;2023-02-19T16:51:06;101230.31;;;8.08;76.54
31483;BME280;18103;52.246;8.052;2023-02-19T16:53:32;101239.19;;;7.89;76.04
31483;BME280;18103;52.246;8.052;2023-02-19T16:55:57;101237.34;;;7.74;76.18